sensor_id;sensor_type;location;lat;lon;timestamp;pressure;altitude;pressure_sealevel;temperature
16956;BMP180;8594;52.052;8.354;2023-01-10T00:01:32;99968.00;;;9.50
16956;BMP180;8594;52.052;8.354;2023-01-10T00:03:59;99971.00;;;9.40
16956;BMP180;8594;52.052;8.354;2023-01-10T00:06:25;99971.00;;;9.60
16956;BMP180;8594;52.052;8.354;2023-01-10T00:08:54;99982.00;;;9.40
16956;BMP180;8594;52.052;8.354;2023-01-10T00:11:22;99990.00;;;9.40
16956;BMP180;8594;52.052;8.354;2023-01-10T00:14:06;99990.00;;;8.90
16956;BMP180;8594;52.052;8.354;2023-01-10T00:16:34;100004.00;;;9.10
16956;BMP180;8594;52.052;8.354;2023-01-10T00:19:01;100009.00;;;9.30
16956;BMP180;8594;52.052;8.354;2023-01-10T00:21:28;100015.00;;;9.40
16956;BMP180;8594;52.052;8.354;2023-01-10T00:23:57;100018.00;;;9.60
16956;BMP180;8594;52.052;8.354;2023-01-10T00:26:33;100029.00;;;9.60
16956;BMP180;8594;52.052;8.354;2023-01-10T00:29:00;100029.00;;;9.50
16956;BMP180;8594;52.052;8.354;2023-01-10T00:31:27;100032.00;;;9.60
16956;BMP180;8594;52.052;8.354;2023-01-10T00:33:54;100037.00;;;9.40
16956;BMP180;8594;52.052;8.354;2023-01-10T00:36:20;100050.00;;;9.40
16956;BMP180;8594;52.052;8.354;2023-01-10T00:38:47;100051.00;;;9.60
16956;BMP180;8594;52.052;8.354;2023-01-10T00:41:16;100060.00;;;9.00
16956;BMP180;8594;52.052;8.354;2023-01-10T00:43:56;100078.00;;;9.00
16956;BMP180;8594;52.052;8.354;2023-01-10T00:46:24;100073.00;;;8.90
16956;BMP180;8594;52.052;8.354;2023-01-10T00:48:50;100065.00;;;9.30
16956;BMP180;8594;52.052;8.354;2023-01-10T00:51:18;100066.00;;;9.30
16956;BMP180;8594;52.052;8.354;2023-01-10T00:53:45;100078.00;;;9.30
16956;BMP180;8594;52.052;8.354;2023-01-10T00:56:12;100081.00;;;9.40
16956;BMP180;8594;52.052;8.354;2023-01-10T00:58:40;100087.00;;;9.00
16956;BMP180;8594;52.052;8.354;2023-01-10T01:01:09;100088.00;;;9.30
16956;BMP180;8594;52.052;8.354;2023-01-10T01:03:36;100087.00;;;9.50
16956;BMP180;8594;52.052;8.354;2023-01-10T01:06:04;100101.00;;;9.50
16956;BMP180;8594;52.052;8.354;2023-01-10T01:08:32;100106.00;;;9.40
16956;BMP180;8594;52.052;8.354;2023-01-10T01:10:59;100113.00;;;9.40
16956;BMP180;8594;52.052;8.354;2023-01-10T01:13:26;100119.00;;;9.10
16956;BMP180;8594;52.052;8.354;2023-01-10T01:15:57;100127.00;;;9.30
16956;BMP180;8594;52.052;8.354;2023-01-10T01:18:24;100136.00;;;9.50
16956;BMP180;8594;52.052;8.354;2023-01-10T01:20:53;100142.00;;;9.60
16956;BMP180;8594;52.052;8.354;2023-01-10T01:23:21;100154.00;;;9.30
16956;BMP180;8594;52.052;8.354;2023-01-10T01:25:49;100155.00;;;9.50
16956;BMP180;8594;52.052;8.354;2023-01-10T01:28:17;100149.00;;;9.60
16956;BMP180;8594;52.052;8.354;2023-01-10T01:30:43;100172.00;;;9.30
16956;BMP180;8594;52.052;8.354;2023-01-10T01:33:12;100181.00;;;9.20
16956;BMP180;8594;52.052;8.354;2023-01-10T01:35:41;100180.00;;;9.40
16956;BMP180;8594;52.052;8.354;2023-01-10T01:38:08;100183.00;;;9.40
16956;BMP180;8594;52.052;8.354;2023-01-10T01:40:35;100182.00;;;9.20
16956;BMP180;8594;52.052;8.354;2023-01-10T01:43:03;100197.00;;;9.20
16956;BMP180;8594;52.052;8.354;2023-01-10T01:45:38;100199.00;;;9.40
16956;BMP180;8594;52.052;8.354;2023-01-10T01:48:22;100202.00;;;9.50
16956;BMP180;8594;52.052;8.354;2023-01-10T01:50:56;100208.00;;;9.50
16956;BMP180;8594;52.052;8.354;2023-01-10T01:53:36;100225.00;;;9.60
16956;BMP180;8594;52.052;8.354;2023-01-10T01:56:10;100225.00;;;9.50
16956;BMP180;8594;52.052;8.354;2023-01-10T01:58:46;100220.00;;;9.70
16956;BMP180;8594;52.052;8.354;2023-01-10T02:01:15;100230.00;;;9.30
16956;BMP180;8594;52.052;8.354;2023-01-10T02:03:48;100239.00;;;9.50
16956;BMP180;8594;52.052;8.354;2023-01-10T02:06:20;100245.00;;;9.40
16956;BMP180;8594;52.052;8.354;2023-01-10T02:08:57;100242.00;;;9.50
16956;BMP180;8594;52.052;8.354;2023-01-10T02:11:24;100242.00;;;9.30
16956;BMP180;8594;52.052;8.354;2023-01-10T02:13:53;100253.00;;;9.30
16956;BMP180;8594;52.052;8.354;2023-01-10T02:16:20;100250.00;;;9.00
16956;BMP180;8594;52.052;8.354;2023-01-10T02:18:48;100251.00;;;9.20
16956;BMP180;8594;52.052;8.354;2023-01-10T02:21:40;100261.00;;;9.20
16956;BMP180;8594;52.052;8.354;2023-01-10T02:28:11;100257.00;;;9.30
16956;BMP180;8594;52.052;8.354;2023-01-10T02:31:17;100263.00;;;9.50
16956;BMP180;8594;52.052;8.354;2023-01-10T02:33:53;100262.00;;;9.20
16956;BMP180;8594;52.052;8.354;2023-01-10T02:36:34;100273.00;;;9.50
16956;BMP180;8594;52.052;8.354;2023-01-10T02:39:12;100275.00;;;9.40
16956;BMP180;8594;52.052;8.354;2023-01-10T02:41:49;100282.00;;;9.40
16956;BMP180;8594;52.052;8.354;2023-01-10T02:44:25;100283.00;;;9.00
16956;BMP180;8594;52.052;8.354;2023-01-10T02:46:55;100282.00;;;9.50
16956;BMP180;8594;52.052;8.354;2023-01-10T02:49:23;100281.00;;;9.30
16956;BMP180;8594;52.052;8.354;2023-01-10T02:51:50;100287.00;;;9.50
16956;BMP180;8594;52.052;8.354;2023-01-10T02:54:21;100295.00;;;9.50
16956;BMP180;8594;52.052;8.354;2023-01-10T02:57:23;100288.00;;;9.30
16956;BMP180;8594;52.052;8.354;2023-01-10T03:00:08;100286.00;;;9.50
16956;BMP180;8594;52.052;8.354;2023-01-10T03:03:06;100297.00;;;9.30
16956;BMP180;8594;52.052;8.354;2023-01-10T03:05:52;100296.00;;;9.30
16956;BMP180;8594;52.052;8.354;2023-01-10T03:08:30;100306.00;;;9.60
16956;BMP180;8594;52.052;8.354;2023-01-10T03:11:03;100308.00;;;9.50
16956;BMP180;8594;52.052;8.354;2023-01-10T03:13:37;100305.00;;;9.30
16956;BMP180;8594;52.052;8.354;2023-01-10T03:16:12;100301.00;;;9.30
16956;BMP180;8594;52.052;8.354;2023-01-10T03:18:44;100308.00;;;9.50
16956;BMP180;8594;52.052;8.354;2023-01-10T03:21:15;100315.00;;;9.00
16956;BMP180;8594;52.052;8.354;2023-01-10T03:23:46;100313.00;;;9.00
16956;BMP180;8594;52.052;8.354;2023-01-10T03:26:19;100310.00;;;9.30
16956;BMP180;8594;52.052;8.354;2023-01-10T03:28:54;100316.00;;;9.10
16956;BMP180;8594;52.052;8.354;2023-01-10T03:31:27;100331.00;;;9.40
16956;BMP180;8594;52.052;8.354;2023-01-10T03:33:57;100338.00;;;9.40
16956;BMP180;8594;52.052;8.354;2023-01-10T03:36:32;100339.00;;;9.20
16956;BMP180;8594;52.052;8.354;2023-01-10T03:39:09;100349.00;;;9.20
16956;BMP180;8594;52.052;8.354;2023-01-10T03:41:46;100367.00;;;9.30
16956;BMP180;8594;52.052;8.354;2023-01-10T03:44:18;100372.00;;;9.40
16956;BMP180;8594;52.052;8.354;2023-01-10T03:47:09;100376.00;;;9.40
16956;BMP180;8594;52.052;8.354;2023-01-10T03:49:40;100371.00;;;9.30
16956;BMP180;8594;52.052;8.354;2023-01-10T03:52:13;100386.00;;;9.20
16956;BMP180;8594;52.052;8.354;2023-01-10T03:54:42;100371.00;;;9.30
16956;BMP180;8594;52.052;8.354;2023-01-10T03:57:16;100379.00;;;9.30
16956;BMP180;8594;52.052;8.354;2023-01-10T03:59:43;100390.00;;;9.60
16956;BMP180;8594;52.052;8.354;2023-01-10T04:02:10;100383.00;;;9.50
16956;BMP180;8594;52.052;8.354;2023-01-10T04:04:37;100396.00;;;9.60
16956;BMP180;8594;52.052;8.354;2023-01-10T04:07:04;100394.00;;;9.40
16956;BMP180;8594;52.052;8.354;2023-01-10T04:09:33;100396.00;;;9.40
16956;BMP180;8594;52.052;8.354;2023-01-10T04:11:59;100407.00;;;9.30
16956;BMP180;8594;52.052;8.354;2023-01-10T04:14:26;100409.00;;;9.40
16956;BMP180;8594;52.052;8.354;2023-01-10T04:16:53;100418.00;;;9.00
16956;BMP180;8594;52.052;8.354;2023-01-10T04:19:20;100420.00;;;9.30
16956;BMP180;8594;52.052;8.354;2023-01-10T04:21:47;100412.00;;;9.30
16956;BMP180;8594;52.052;8.354;2023-01-10T04:24:13;100421.00;;;9.20
16956;BMP180;8594;52.052;8.354;2023-01-10T04:26:41;100426.00;;;9.10
16956;BMP180;8594;52.052;8.354;2023-01-10T04:29:09;100421.00;;;9.40
16956;BMP180;8594;52.052;8.354;2023-01-10T04:31:36;100424.00;;;9.40
16956;BMP180;8594;52.052;8.354;2023-01-10T04:34:04;100423.00;;;9.20
16956;BMP180;8594;52.052;8.354;2023-01-10T04:36:31;100421.00;;;9.40
16956;BMP180;8594;52.052;8.354;2023-01-10T04:38:58;100433.00;;;9.50
16956;BMP180;8594;52.052;8.354;2023-01-10T04:41:25;100422.00;;;9.30
16956;BMP180;8594;52.052;8.354;2023-01-10T04:43:53;100426.00;;;9.50
16956;BMP180;8594;52.052;8.354;2023-01-10T04:46:20;100425.00;;;9.10
16956;BMP180;8594;52.052;8.354;2023-01-10T04:48:46;100427.00;;;9.10
16956;BMP180;8594;52.052;8.354;2023-01-10T04:51:13;100438.00;;;9.30
16956;BMP180;8594;52.052;8.354;2023-01-10T04:53:40;100436.00;;;9.30
16956;BMP180;8594;52.052;8.354;2023-01-10T04:56:09;100441.00;;;8.80
16956;BMP180;8594;52.052;8.354;2023-01-10T04:58:40;100446.00;;;8.50
16956;BMP180;8594;52.052;8.354;2023-01-10T05:01:10;100447.00;;;8.80
16956;BMP180;8594;52.052;8.354;2023-01-10T05:03:37;100447.00;;;8.90
16956;BMP180;8594;52.052;8.354;2023-01-10T05:06:05;100455.00;;;9.10
16956;BMP180;8594;52.052;8.354;2023-01-10T05:08:32;100458.00;;;9.00
16956;BMP180;8594;52.052;8.354;2023-01-10T05:10:59;100460.00;;;9.10
16956;BMP180;8594;52.052;8.354;2023-01-10T05:13:26;100464.00;;;9.00
16956;BMP180;8594;52.052;8.354;2023-01-10T05:15:53;100466.00;;;9.00
16956;BMP180;8594;52.052;8.354;2023-01-10T05:18:22;100471.00;;;8.80
16956;BMP180;8594;52.052;8.354;2023-01-10T05:20:49;100478.00;;;8.90
16956;BMP180;8594;52.052;8.354;2023-01-10T05:23:16;100484.00;;;8.80
16956;BMP180;8594;52.052;8.354;2023-01-10T05:25:43;100484.00;;;8.60
16956;BMP180;8594;52.052;8.354;2023-01-10T05:28:10;100490.00;;;8.80
16956;BMP180;8594;52.052;8.354;2023-01-10T05:30:36;100489.00;;;8.70
16956;BMP180;8594;52.052;8.354;2023-01-10T05:33:04;100498.00;;;9.00
16956;BMP180;8594;52.052;8.354;2023-01-10T05:35:32;100496.00;;;8.70
16956;BMP180;8594;52.052;8.354;2023-01-10T05:37:59;100501.00;;;8.80
16956;BMP180;8594;52.052;8.354;2023-01-10T05:40:26;100509.00;;;8.70
16956;BMP180;8594;52.052;8.354;2023-01-10T05:42:53;100517.00;;;8.60
16956;BMP180;8594;52.052;8.354;2023-01-10T05:45:20;100510.00;;;8.70
16956;BMP180;8594;52.052;8.354;2023-01-10T05:47:47;100512.00;;;8.80
16956;BMP180;8594;52.052;8.354;2023-01-10T05:50:14;100512.00;;;8.90
16956;BMP180;8594;52.052;8.354;2023-01-10T05:52:43;100512.00;;;8.70
16956;BMP180;8594;52.052;8.354;2023-01-10T05:55:09;100516.00;;;8.60
16956;BMP180;8594;52.052;8.354;2023-01-10T05:57:36;100529.00;;;8.60
16956;BMP180;8594;52.052;8.354;2023-01-10T06:00:04;100540.00;;;8.90
16956;BMP180;8594;52.052;8.354;2023-01-10T06:02:32;100529.00;;;8.90
16956;BMP180;8594;52.052;8.354;2023-01-10T06:04:58;100537.00;;;8.90
16956;BMP180;8594;52.052;8.354;2023-01-10T06:07:25;100538.00;;;9.10
16956;BMP180;8594;52.052;8.354;2023-01-10T06:09:53;100548.00;;;8.80
16956;BMP180;8594;52.052;8.354;2023-01-10T06:12:20;100555.00;;;9.10
16956;BMP180;8594;52.052;8.354;2023-01-10T06:14:47;100549.00;;;8.90
16956;BMP180;8594;52.052;8.354;2023-01-10T06:17:13;100552.00;;;8.80
16956;BMP180;8594;52.052;8.354;2023-01-10T06:19:40;100548.00;;;9.20
16956;BMP180;8594;52.052;8.354;2023-01-10T06:22:07;100558.00;;;9.10
16956;BMP180;8594;52.052;8.354;2023-01-10T06:24:34;100561.00;;;9.00
16956;BMP180;8594;52.052;8.354;2023-01-10T06:27:02;100577.00;;;8.90
16956;BMP180;8594;52.052;8.354;2023-01-10T06:29:29;100571.00;;;8.80
16956;BMP180;8594;52.052;8.354;2023-01-10T06:31:56;100573.00;;;8.90
16956;BMP180;8594;52.052;8.354;2023-01-10T06:34:23;100579.00;;;9.00
16956;BMP180;8594;52.052;8.354;2023-01-10T06:36:49;100579.00;;;8.90
16956;BMP180;8594;52.052;8.354;2023-01-10T06:39:16;100591.00;;;9.10
16956;BMP180;8594;52.052;8.354;2023-01-10T06:41:43;100603.00;;;9.10
16956;BMP180;8594;52.052;8.354;2023-01-10T06:44:11;100599.00;;;9.00
16956;BMP180;8594;52.052;8.354;2023-01-10T06:46:38;100605.00;;;9.00
16956;BMP180;8594;52.052;8.354;2023-01-10T06:49:05;100609.00;;;9.20
16956;BMP180;8594;52.052;8.354;2023-01-10T06:51:31;100617.00;;;9.00
16956;BMP180;8594;52.052;8.354;2023-01-10T06:53:58;100612.00;;;9.30
16956;BMP180;8594;52.052;8.354;2023-01-10T06:56:25;100619.00;;;9.40
16956;BMP180;8594;52.052;8.354;2023-01-10T06:58:52;100616.00;;;9.20
16956;BMP180;8594;52.052;8.354;2023-01-10T07:01:21;100612.00;;;8.90
16956;BMP180;8594;52.052;8.354;2023-01-10T07:03:48;100608.00;;;9.10
16956;BMP180;8594;52.052;8.354;2023-01-10T07:06:15;100615.00;;;9.40
16956;BMP180;8594;52.052;8.354;2023-01-10T07:08:44;100620.00;;;9.30
16956;BMP180;8594;52.052;8.354;2023-01-10T07:11:14;100620.00;;;8.80
16956;BMP180;8594;52.052;8.354;2023-01-10T07:13:41;100629.00;;;9.20
16956;BMP180;8594;52.052;8.354;2023-01-10T07:16:10;100629.00;;;9.30
16956;BMP180;8594;52.052;8.354;2023-01-10T07:18:41;100633.00;;;9.20
16956;BMP180;8594;52.052;8.354;2023-01-10T07:21:09;100641.00;;;9.20
16956;BMP180;8594;52.052;8.354;2023-01-10T07:23:37;100651.00;;;9.10
16956;BMP180;8594;52.052;8.354;2023-01-10T07:26:06;100659.00;;;9.00
16956;BMP180;8594;52.052;8.354;2023-01-10T07:28:34;100652.00;;;8.90
16956;BMP180;8594;52.052;8.354;2023-01-10T07:31:03;100661.00;;;9.10
16956;BMP180;8594;52.052;8.354;2023-01-10T07:33:31;100655.00;;;8.90
16956;BMP180;8594;52.052;8.354;2023-01-10T07:36:00;100664.00;;;9.30
16956;BMP180;8594;52.052;8.354;2023-01-10T07:38:27;100659.00;;;9.20
16956;BMP180;8594;52.052;8.354;2023-01-10T07:40:54;100659.00;;;8.80
16956;BMP180;8594;52.052;8.354;2023-01-10T07:43:21;100665.00;;;9.00
16956;BMP180;8594;52.052;8.354;2023-01-10T07:45:48;100677.00;;;8.80
16956;BMP180;8594;52.052;8.354;2023-01-10T07:48:14;100674.00;;;9.10
16956;BMP180;8594;52.052;8.354;2023-01-10T07:50:41;100673.00;;;8.80
16956;BMP180;8594;52.052;8.354;2023-01-10T07:53:09;100663.00;;;9.20
16956;BMP180;8594;52.052;8.354;2023-01-10T07:55:37;100675.00;;;9.30
16956;BMP180;8594;52.052;8.354;2023-01-10T07:58:04;100676.00;;;9.40
16956;BMP180;8594;52.052;8.354;2023-01-10T08:00:32;100686.00;;;9.20
16956;BMP180;8594;52.052;8.354;2023-01-10T08:02:59;100683.00;;;9.30
16956;BMP180;8594;52.052;8.354;2023-01-10T08:05:26;100683.00;;;9.10
16956;BMP180;8594;52.052;8.354;2023-01-10T08:07:53;100688.00;;;9.00
16956;BMP180;8594;52.052;8.354;2023-01-10T08:10:22;100694.00;;;9.30
16956;BMP180;8594;52.052;8.354;2023-01-10T08:12:50;100709.00;;;9.20
16956;BMP180;8594;52.052;8.354;2023-01-10T08:15:17;100710.00;;;9.10
16956;BMP180;8594;52.052;8.354;2023-01-10T08:17:43;100718.00;;;9.10
16956;BMP180;8594;52.052;8.354;2023-01-10T08:20:11;100707.00;;;8.90
16956;BMP180;8594;52.052;8.354;2023-01-10T08:22:38;100717.00;;;9.00
16956;BMP180;8594;52.052;8.354;2023-01-10T08:25:05;100719.00;;;8.50
16956;BMP180;8594;52.052;8.354;2023-01-10T08:27:33;100726.00;;;8.70
16956;BMP180;8594;52.052;8.354;2023-01-10T08:30:00;100738.00;;;9.00
16956;BMP180;8594;52.052;8.354;2023-01-10T08:32:27;100732.00;;;8.70
16956;BMP180;8594;52.052;8.354;2023-01-10T08:34:54;100734.00;;;8.80
16956;BMP180;8594;52.052;8.354;2023-01-10T08:37:20;100733.00;;;9.10
16956;BMP180;8594;52.052;8.354;2023-01-10T08:39:47;100737.00;;;8.60
16956;BMP180;8594;52.052;8.354;2023-01-10T08:42:14;100739.00;;;8.80
16956;BMP180;8594;52.052;8.354;2023-01-10T08:44:44;100729.00;;;8.90
16956;BMP180;8594;52.052;8.354;2023-01-10T08:47:11;100736.00;;;8.60
16956;BMP180;8594;52.052;8.354;2023-01-10T08:49:38;100734.00;;;9.10
16956;BMP180;8594;52.052;8.354;2023-01-10T08:52:05;100735.00;;;8.80
16956;BMP180;8594;52.052;8.354;2023-01-10T08:54:32;100730.00;;;8.90
16956;BMP180;8594;52.052;8.354;2023-01-10T08:56:59;100739.00;;;9.00
16956;BMP180;8594;52.052;8.354;2023-01-10T08:59:25;100745.00;;;8.20
16956;BMP180;8594;52.052;8.354;2023-01-10T09:01:54;100744.00;;;8.60
16956;BMP180;8594;52.052;8.354;2023-01-10T09:04:23;100745.00;;;9.00
16956;BMP180;8594;52.052;8.354;2023-01-10T09:06:50;100744.00;;;8.90
16956;BMP180;8594;52.052;8.354;2023-01-10T09:09:17;100753.00;;;9.20
16956;BMP180;8594;52.052;8.354;2023-01-10T09:11:44;100757.00;;;8.90
16956;BMP180;8594;52.052;8.354;2023-01-10T09:14:11;100755.00;;;9.30
16956;BMP180;8594;52.052;8.354;2023-01-10T09:16:37;100748.00;;;9.20
16956;BMP180;8594;52.052;8.354;2023-01-10T09:19:05;100751.00;;;9.00
16956;BMP180;8594;52.052;8.354;2023-01-10T09:21:32;100746.00;;;9.10
16956;BMP180;8594;52.052;8.354;2023-01-10T09:23:59;100752.00;;;8.80
16956;BMP180;8594;52.052;8.354;2023-01-10T09:26:26;100746.00;;;8.90
16956;BMP180;8594;52.052;8.354;2023-01-10T09:28:52;100756.00;;;9.20
16956;BMP180;8594;52.052;8.354;2023-01-10T09:31:19;100756.00;;;9.10
16956;BMP180;8594;52.052;8.354;2023-01-10T09:33:46;100762.00;;;8.70
16956;BMP180;8594;52.052;8.354;2023-01-10T09:36:15;100769.00;;;9.00
16956;BMP180;8594;52.052;8.354;2023-01-10T09:38:42;100770.00;;;9.00
16956;BMP180;8594;52.052;8.354;2023-01-10T09:41:26;100778.00;;;8.80
16956;BMP180;8594;52.052;8.354;2023-01-10T09:44:03;100792.00;;;9.00
16956;BMP180;8594;52.052;8.354;2023-01-10T09:46:48;100780.00;;;9.10
16956;BMP180;8594;52.052;8.354;2023-01-10T09:49:28;100788.00;;;9.10
16956;BMP180;8594;52.052;8.354;2023-01-10T09:52:04;100794.00;;;8.90
16956;BMP180;8594;52.052;8.354;2023-01-10T09:54:40;100790.00;;;9.20
16956;BMP180;8594;52.052;8.354;2023-01-10T09:57:16;100789.00;;;9.50
16956;BMP180;8594;52.052;8.354;2023-01-10T09:59:45;100783.00;;;9.00
16956;BMP180;8594;52.052;8.354;2023-01-10T10:02:25;100797.00;;;9.30
16956;BMP180;8594;52.052;8.354;2023-01-10T10:05:14;100805.00;;;8.80
16956;BMP180;8594;52.052;8.354;2023-01-10T10:07:44;100803.00;;;9.20
16956;BMP180;8594;52.052;8.354;2023-01-10T10:10:22;100810.00;;;9.40
16956;BMP180;8594;52.052;8.354;2023-01-10T10:13:03;100802.00;;;9.10
16956;BMP180;8594;52.052;8.354;2023-01-10T10:15:42;100798.00;;;9.10
16956;BMP180;8594;52.052;8.354;2023-01-10T10:18:26;100803.00;;;9.50
16956;BMP180;8594;52.052;8.354;2023-01-10T10:21:02;100794.00;;;9.40
16956;BMP180;8594;52.052;8.354;2023-01-10T10:23:51;100794.00;;;9.30
16956;BMP180;8594;52.052;8.354;2023-01-10T10:26:31;100797.00;;;9.20
16956;BMP180;8594;52.052;8.354;2023-01-10T10:29:18;100796.00;;;9.60
16956;BMP180;8594;52.052;8.354;2023-01-10T10:32:19;100793.00;;;9.40
16956;BMP180;8594;52.052;8.354;2023-01-10T10:34:55;100786.00;;;9.40
16956;BMP180;8594;52.052;8.354;2023-01-10T10:37:27;100789.00;;;9.70
16956;BMP180;8594;52.052;8.354;2023-01-10T10:40:02;100795.00;;;9.40
16956;BMP180;8594;52.052;8.354;2023-01-10T10:42:36;100796.00;;;9.40
16956;BMP180;8594;52.052;8.354;2023-01-10T10:45:15;100787.00;;;9.50
16956;BMP180;8594;52.052;8.354;2023-01-10T10:47:50;100789.00;;;9.60
16956;BMP180;8594;52.052;8.354;2023-01-10T10:50:24;100796.00;;;9.70
16956;BMP180;8594;52.052;8.354;2023-01-10T10:52:53;100794.00;;;9.70
16956;BMP180;8594;52.052;8.354;2023-01-10T10:55:27;100781.00;;;9.80
16956;BMP180;8594;52.052;8.354;2023-01-10T10:57:55;100782.00;;;9.60
16956;BMP180;8594;52.052;8.354;2023-01-10T11:00:23;100793.00;;;9.60
16956;BMP180;8594;52.052;8.354;2023-01-10T11:02:57;100794.00;;;9.80
16956;BMP180;8594;52.052;8.354;2023-01-10T11:05:34;100791.00;;;10.00
16956;BMP180;8594;52.052;8.354;2023-01-10T11:08:05;100771.00;;;9.30
16956;BMP180;8594;52.052;8.354;2023-01-10T11:10:36;100777.00;;;9.70
16956;BMP180;8594;52.052;8.354;2023-01-10T11:13:16;100779.00;;;9.80
16956;BMP180;8594;52.052;8.354;2023-01-10T11:15:48;100766.00;;;9.70
16956;BMP180;8594;52.052;8.354;2023-01-10T11:18:18;100772.00;;;9.30
16956;BMP180;8594;52.052;8.354;2023-01-10T11:20:49;100773.00;;;9.40
16956;BMP180;8594;52.052;8.354;2023-01-10T11:23:40;100771.00;;;9.50
16956;BMP180;8594;52.052;8.354;2023-01-10T11:26:24;100768.00;;;9.80
16956;BMP180;8594;52.052;8.354;2023-01-10T11:29:05;100763.00;;;9.90
16956;BMP180;8594;52.052;8.354;2023-01-10T11:31:33;100763.00;;;10.00
16956;BMP180;8594;52.052;8.354;2023-01-10T11:34:05;100758.00;;;9.80
16956;BMP180;8594;52.052;8.354;2023-01-10T11:36:52;100753.00;;;9.60
16956;BMP180;8594;52.052;8.354;2023-01-10T11:39:19;100757.00;;;9.80
16956;BMP180;8594;52.052;8.354;2023-01-10T11:41:47;100756.00;;;10.40
16956;BMP180;8594;52.052;8.354;2023-01-10T11:44:22;100763.00;;;10.30
16956;BMP180;8594;52.052;8.354;2023-01-10T11:46:54;100757.00;;;10.00
16956;BMP180;8594;52.052;8.354;2023-01-10T11:49:31;100750.00;;;10.00
16956;BMP180;8594;52.052;8.354;2023-01-10T11:52:10;100746.00;;;10.40
16956;BMP180;8594;52.052;8.354;2023-01-10T11:54:40;100748.00;;;10.10
16956;BMP180;8594;52.052;8.354;2023-01-10T11:57:17;100749.00;;;10.20
16956;BMP180;8594;52.052;8.354;2023-01-10T11:59:51;100750.00;;;10.60
16956;BMP180;8594;52.052;8.354;2023-01-10T12:02:23;100751.00;;;10.70
16956;BMP180;8594;52.052;8.354;2023-01-10T12:04:52;100756.00;;;10.40
16956;BMP180;8594;52.052;8.354;2023-01-10T12:07:20;100757.00;;;10.10
16956;BMP180;8594;52.052;8.354;2023-01-10T12:09:55;100749.00;;;10.20
16956;BMP180;8594;52.052;8.354;2023-01-10T12:12:25;100757.00;;;10.10
16956;BMP180;8594;52.052;8.354;2023-01-10T12:14:54;100758.00;;;9.80
16956;BMP180;8594;52.052;8.354;2023-01-10T12:17:24;100763.00;;;9.60
16956;BMP180;8594;52.052;8.354;2023-01-10T12:19:53;100759.00;;;9.90
16956;BMP180;8594;52.052;8.354;2023-01-10T12:22:29;100748.00;;;10.00
16956;BMP180;8594;52.052;8.354;2023-01-10T12:24:59;100746.00;;;10.30
16956;BMP180;8594;52.052;8.354;2023-01-10T12:27:28;100754.00;;;10.50
16956;BMP180;8594;52.052;8.354;2023-01-10T12:30:03;100759.00;;;10.30
16956;BMP180;8594;52.052;8.354;2023-01-10T12:32:41;100750.00;;;10.00
16956;BMP180;8594;52.052;8.354;2023-01-10T12:35:16;100754.00;;;10.10
16956;BMP180;8594;52.052;8.354;2023-01-10T12:37:48;100764.00;;;10.20
16956;BMP180;8594;52.052;8.354;2023-01-10T12:40:25;100755.00;;;10.00
16956;BMP180;8594;52.052;8.354;2023-01-10T12:43:05;100748.00;;;9.80
16956;BMP180;8594;52.052;8.354;2023-01-10T12:45:56;100750.00;;;10.20
16956;BMP180;8594;52.052;8.354;2023-01-10T12:48:41;100759.00;;;10.20
16956;BMP180;8594;52.052;8.354;2023-01-10T12:51:16;100757.00;;;10.30
16956;BMP180;8594;52.052;8.354;2023-01-10T12:53:49;100749.00;;;10.00
16956;BMP180;8594;52.052;8.354;2023-01-10T12:56:19;100742.00;;;10.40
16956;BMP180;8594;52.052;8.354;2023-01-10T12:58:53;100752.00;;;10.30
16956;BMP180;8594;52.052;8.354;2023-01-10T13:01:28;100747.00;;;10.30
16956;BMP180;8594;52.052;8.354;2023-01-10T13:04:02;100751.00;;;10.30
16956;BMP180;8594;52.052;8.354;2023-01-10T13:06:33;100736.00;;;10.10
16956;BMP180;8594;52.052;8.354;2023-01-10T13:09:06;100734.00;;;10.40
16956;BMP180;8594;52.052;8.354;2023-01-10T13:11:45;100726.00;;;10.10
16956;BMP180;8594;52.052;8.354;2023-01-10T13:14:20;100728.00;;;10.50
16956;BMP180;8594;52.052;8.354;2023-01-10T13:16:53;100722.00;;;10.30
16956;BMP180;8594;52.052;8.354;2023-01-10T13:19:25;100728.00;;;10.20
16956;BMP180;8594;52.052;8.354;2023-01-10T13:22:21;100720.00;;;10.20
16956;BMP180;8594;52.052;8.354;2023-01-10T13:24:56;100712.00;;;10.40
16956;BMP180;8594;52.052;8.354;2023-01-10T13:27:32;100716.00;;;10.50
16956;BMP180;8594;52.052;8.354;2023-01-10T13:30:03;100710.00;;;10.20
16956;BMP180;8594;52.052;8.354;2023-01-10T13:32:33;100701.00;;;10.50
16956;BMP180;8594;52.052;8.354;2023-01-10T13:35:12;100707.00;;;10.50
16956;BMP180;8594;52.052;8.354;2023-01-10T13:37:42;100704.00;;;10.60
16956;BMP180;8594;52.052;8.354;2023-01-10T13:40:20;100701.00;;;10.30
16956;BMP180;8594;52.052;8.354;2023-01-10T13:43:40;100695.00;;;10.60
16956;BMP180;8594;52.052;8.354;2023-01-10T13:46:41;100693.00;;;10.40
16956;BMP180;8594;52.052;8.354;2023-01-10T13:52:36;100688.00;;;10.40
16956;BMP180;8594;52.052;8.354;2023-01-10T13:55:27;100697.00;;;10.40
16956;BMP180;8594;52.052;8.354;2023-01-10T13:57:57;100698.00;;;10.40
16956;BMP180;8594;52.052;8.354;2023-01-10T14:00:49;100703.00;;;10.20
16956;BMP180;8594;52.052;8.354;2023-01-10T14:03:53;100682.00;;;10.30
16956;BMP180;8594;52.052;8.354;2023-01-10T14:06:36;100693.00;;;10.30
16956;BMP180;8594;52.052;8.354;2023-01-10T14:09:33;100684.00;;;10.30
16956;BMP180;8594;52.052;8.354;2023-01-10T14:12:05;100681.00;;;10.30
16956;BMP180;8594;52.052;8.354;2023-01-10T14:14:36;100686.00;;;10.10
16956;BMP180;8594;52.052;8.354;2023-01-10T14:17:14;100669.00;;;10.20
16956;BMP180;8594;52.052;8.354;2023-01-10T14:20:00;100684.00;;;10.10
16956;BMP180;8594;52.052;8.354;2023-01-10T14:22:30;100670.00;;;10.40
16956;BMP180;8594;52.052;8.354;2023-01-10T14:24:58;100672.00;;;10.50
16956;BMP180;8594;52.052;8.354;2023-01-10T14:27:35;100662.00;;;10.20
16956;BMP180;8594;52.052;8.354;2023-01-10T14:30:05;100666.00;;;10.20
16956;BMP180;8594;52.052;8.354;2023-01-10T14:32:34;100654.00;;;10.40
16956;BMP180;8594;52.052;8.354;2023-01-10T14:35:08;100654.00;;;10.50
16956;BMP180;8594;52.052;8.354;2023-01-10T14:37:44;100659.00;;;10.60
16956;BMP180;8594;52.052;8.354;2023-01-10T14:40:21;100650.00;;;10.70
16956;BMP180;8594;52.052;8.354;2023-01-10T14:42:50;100649.00;;;10.40
16956;BMP180;8594;52.052;8.354;2023-01-10T14:45:33;100655.00;;;10.40
16956;BMP180;8594;52.052;8.354;2023-01-10T14:48:27;100646.00;;;10.60
16956;BMP180;8594;52.052;8.354;2023-01-10T14:51:24;100639.00;;;10.20
16956;BMP180;8594;52.052;8.354;2023-01-10T14:53:57;100641.00;;;10.00